Time;durP1;ratioP1;P1;durP2;ratioP2;P2;SDS_P1;SDS_P2;PMS_P1;PMS_P2;Temp;Humidity;BMP_temperature;BMP_pressure;BME280_temperature;BME280_humidity;BME280_pressure;Samples;Min_cycle;Max_cycle;Signal;HPM_P1;HPM_P2
2022/06/17 00:00:11;;;;;;;16.55;7.65;;;20.70;94.60;;;;;;4870783;29;20121;-75
2022/06/17 00:02:57;;;;;;;15.07;7.10;;;20.60;95.00;;;;;;4870032;29;20607;-75
2022/06/17 00:05:44;;;;;;;13.57;7.30;;;20.60;94.90;;;;;;4869353;29;20045;-79
2022/06/17 00:08:37;;;;;;;13.40;7.90;;;20.60;93.60;;;;;;4872387;29;20178;-78
2022/06/17 00:11:26;;;;;;;14.90;7.88;;;20.30;92.40;;;;;;4869802;29;20174;-76
2022/06/17 00:14:19;;;;;;;14.27;8.52;;;19.90;92.50;;;;;;4869476;29;20072;-75
2022/06/17 00:17:07;;;;;;;16.55;7.57;;;19.40;93.60;;;;;;4869697;29;20044;-75
2022/06/17 00:19:53;;;;;;;13.98;8.40;;;19.70;93.90;;;;;;4869664;29;20065;-76
2022/06/17 00:22:41;;;;;;;11.75;7.22;;;20.20;94.60;;;;;;4870685;29;20068;-74
2022/06/17 00:25:34;;;;;;;13.98;7.55;;;20.30;94.70;;;;;;4869739;29;20565;-75
2022/06/17 00:28:23;;;;;;;17.17;8.35;;;20.30;94.40;;;;;;4873569;29;20104;-76
2022/06/17 00:31:09;;;;;;;15.10;8.23;;;20.20;94.90;;;;;;4878849;29;20517;-79
2022/06/17 00:33:55;;;;;;;15.43;8.32;;;20.30;95.10;;;;;;4878705;29;20128;-77
2022/06/17 00:36:42;;;;;;;12.55;7.80;;;20.10;95.40;;;;;;4879550;29;20085;-74
2022/06/17 00:39:31;;;;;;;15.15;8.27;;;20.00;95.20;;;;;;4878594;29;20060;-86
2022/06/17 00:42:19;;;;;;;15.25;7.90;;;19.90;95.20;;;;;;4878934;29;20064;-76
2022/06/17 00:45:30;;;;;;;17.50;8.48;;;20.00;95.70;;;;;;4878557;29;20068;-77
2022/06/17 00:48:27;;;;;;;17.90;8.20;;;20.20;95.60;;;;;;4878618;29;20052;-76
2022/06/17 00:51:21;;;;;;;15.02;8.48;;;20.30;96.50;;;;;;4878893;29;20217;-75
2022/06/17 00:54:20;;;;;;;15.20;7.85;;;20.20;96.70;;;;;;4878333;29;20536;-80
2022/06/17 00:57:20;;;;;;;13.38;7.55;;;20.10;97.10;;;;;;4878491;29;20526;-74
2022/06/17 01:00:20;;;;;;;13.05;7.15;;;20.00;97.50;;;;;;4877442;29;20052;-75
2022/06/17 01:03:12;;;;;;;12.23;6.80;;;20.00;98.80;;;;;;4878352;29;20052;-74
2022/06/17 01:06:07;;;;;;;14.98;6.90;;;19.90;99.80;;;;;;4878645;29;20406;-76
2022/06/17 01:12:09;;;;;;;10.95;6.20;;;19.70;99.90;;;;;;4859925;29;20049;-74
2022/06/17 01:14:56;;;;;;;12.93;6.25;;;19.50;99.90;;;;;;4859615;29;20064;-75
2022/06/17 01:17:42;;;;;;;11.88;6.50;;;19.50;99.90;;;;;;4859867;29;20178;-74
2022/06/17 01:20:30;;;;;;;13.48;5.97;;;19.70;99.90;;;;;;4859517;29;20520;-74
2022/06/17 01:23:15;;;;;;;11.32;6.57;;;19.80;99.90;;;;;;4859904;29;20081;-75
2022/06/17 01:26:01;;;;;;;12.27;5.93;;;19.80;99.90;;;;;;4859530;29;20166;-76
2022/06/17 01:28:47;;;;;;;14.70;5.70;;;19.60;99.90;;;;;;4858451;29;20203;-78
2022/06/17 01:31:34;;;;;;;9.90;6.20;;;19.60;99.90;;;;;;4858485;29;20517;-75
2022/06/17 01:34:21;;;;;;;11.95;5.78;;;19.50;99.90;;;;;;4859481;29;20149;-73
2022/06/17 01:37:08;;;;;;;10.55;5.20;;;19.40;99.90;;;;;;4859447;29;20052;-76
2022/06/17 01:39:55;;;;;;;9.25;5.75;;;19.20;99.90;;;;;;4859408;29;20061;-74
2022/06/17 01:42:42;;;;;;;11.50;5.20;;;19.30;99.90;;;;;;4859252;29;20458;-78
2022/06/17 01:45:29;;;;;;;10.10;5.15;;;19.40;99.90;;;;;;4859089;29;20081;-74
2022/06/17 01:48:19;;;;;;;9.65;5.05;;;19.50;99.90;;;;;;4859211;29;20064;-80
2022/06/17 01:51:07;;;;;;;9.10;4.43;;;19.50;99.90;;;;;;4858404;29;20514;-79
2022/06/17 01:53:57;;;;;;;8.07;4.93;;;19.30;99.90;;;;;;4859195;29;20043;-83
2022/06/17 01:56:46;;;;;;;13.55;4.28;;;19.40;99.90;;;;;;4858892;29;20448;-81
2022/06/17 01:59:38;;;;;;;9.60;5.03;;;19.30;99.90;;;;;;4859338;29;20057;-76
2022/06/17 02:02:25;;;;;;;8.10;4.65;;;19.30;99.90;;;;;;4858724;29;20056;-77
2022/06/17 02:05:12;;;;;;;7.60;4.57;;;19.30;99.90;;;;;;4858950;29;20053;-75
2022/06/17 02:07:59;;;;;;;6.97;4.45;;;19.10;99.90;;;;;;4865161;29;20402;-74
2022/06/17 02:10:49;;;;;;;8.40;5.15;;;18.90;99.90;;;;;;4881621;29;20080;-75
2022/06/17 02:13:34;;;;;;;9.57;4.25;;;18.90;99.90;;;;;;4881261;29;20112;-81
2022/06/17 02:16:20;;;;;;;9.60;4.65;;;19.00;99.90;;;;;;4881472;29;20064;-77
2022/06/17 02:19:06;;;;;;;7.35;4.35;;;18.90;99.90;;;;;;4881589;29;20521;-81
2022/06/17 02:22:12;;;;;;;12.82;5.00;;;18.90;99.90;;;;;;4882121;29;20144;-83
2022/06/17 02:25:04;;;;;;;10.57;5.22;;;18.70;99.90;;;;;;4881909;29;20056;-77
2022/06/17 02:27:54;;;;;;;8.40;4.72;;;18.90;99.90;;;;;;4880437;29;20565;-74
2022/06/17 02:30:43;;;;;;;8.48;5.00;;;18.90;99.90;;;;;;4880420;29;20505;-76
2022/06/17 02:33:31;;;;;;;8.93;4.80;;;18.90;99.90;;;;;;4880465;29;20188;-75
2022/06/17 02:36:24;;;;;;;10.63;5.25;;;19.00;99.90;;;;;;4880428;29;20109;-77
2022/06/17 02:39:13;;;;;;;9.20;5.45;;;19.00;99.90;;;;;;4881096;29;20064;-76
2022/06/17 02:41:58;;;;;;;12.32;5.22;;;18.70;99.90;;;;;;4880002;29;20075;-78
2022/06/17 02:44:48;;;;;;;9.07;4.93;;;18.60;99.90;;;;;;4880876;29;20059;-77
2022/06/17 02:47:34;;;;;;;9.75;5.78;;;18.70;99.90;;;;;;4880533;29;20068;-75
2022/06/17 02:50:24;;;;;;;10.60;4.90;;;18.70;99.90;;;;;;4880937;29;20159;-75
2022/06/17 02:53:09;;;;;;;10.38;5.18;;;18.60;99.90;;;;;;4880977;29;20513;-76
2022/06/17 02:55:56;;;;;;;8.48;5.03;;;18.70;99.90;;;;;;4880309;29;20056;-77
2022/06/17 02:59:10;;;;;;;9.13;5.65;;;18.60;99.90;;;;;;4879478;29;20048;-75
2022/06/17 03:02:00;;;;;;;11.50;5.70;;;18.60;99.90;;;;;;4863360;29;20089;-76
2022/06/17 03:04:47;;;;;;;9.32;5.40;;;18.40;99.90;;;;;;4880202;29;20060;-76
2022/06/17 03:07:33;;;;;;;12.25;7.18;;;18.40;99.90;;;;;;4880506;29;20105;-76
2022/06/17 03:10:25;;;;;;;12.65;4.90;;;18.60;99.90;;;;;;4861684;29;20052;-76
2022/06/17 03:13:17;;;;;;;14.45;7.10;;;18.70;99.90;;;;;;4860589;29;20067;-80
2022/06/17 03:16:06;;;;;;;13.80;6.05;;;18.70;99.90;;;;;;4861595;29;20137;-80
2022/06/17 03:18:53;;;;;;;8.98;5.20;;;18.70;99.90;;;;;;4861765;29;20052;-81
2022/06/17 03:21:39;;;;;;;11.77;5.35;;;18.80;99.90;;;;;;4861811;29;20409;-83
2022/06/17 03:24:34;;;;;;;10.93;5.72;;;18.90;99.90;;;;;;4861231;29;20049;-83
2022/06/17 03:27:26;;;;;;;8.68;5.15;;;18.80;99.90;;;;;;4861630;29;20133;-75
2022/06/17 03:30:18;;;;;;;8.18;4.85;;;18.70;99.90;;;;;;4861829;29;20145;-75
2022/06/17 03:33:22;;;;;;;14.07;6.20;;;18.50;99.90;;;;;;4861202;29;20136;-81
2022/06/17 03:36:21;;;;;;;8.77;4.78;;;18.90;99.90;;;;;;4861675;29;20052;-81
2022/06/17 03:39:39;;;;;;;10.93;5.15;;;18.80;99.90;;;;;;4861160;29;20049;-82
2022/06/17 03:42:33;;;;;;;9.60;5.32;;;18.70;99.90;;;;;;4861297;29;20055;-76
2022/06/17 03:45:26;;;;;;;11.00;4.97;;;18.70;99.90;;;;;;4861318;29;20052;-78
2022/06/17 03:48:35;;;;;;;13.38;5.03;;;18.90;99.90;;;;;;4873477;29;20117;-75
2022/06/17 03:51:24;;;;;;;9.20;4.70;;;19.00;99.90;;;;;;4859056;29;20056;-75
2022/06/17 03:54:14;;;;;;;10.02;5.18;;;18.90;99.90;;;;;;4859830;29;20410;-78
2022/06/17 03:57:01;;;;;;;10.05;5.60;;;18.90;99.90;;;;;;4861122;29;20110;-77
2022/06/17 03:59:49;;;;;;;8.57;5.35;;;19.00;99.90;;;;;;4860913;29;20137;-78
2022/06/17 04:02:35;;;;;;;13.25;5.07;;;19.00;99.90;;;;;;4860853;29;20053;-76
2022/06/17 04:05:22;;;;;;;11.57;5.93;;;19.00;99.90;;;;;;4860871;29;20174;-77
2022/06/17 04:08:12;;;;;;;9.20;5.60;;;19.10;99.90;;;;;;4860923;29;20068;-76
2022/06/17 04:10:58;;;;;;;13.18;5.68;;;19.00;99.90;;;;;;4878459;29;20052;-76
2022/06/17 04:13:45;;;;;;;15.95;6.35;;;19.20;99.90;;;;;;4878172;29;20064;-79
2022/06/17 04:17:07;;;;;;;14.27;6.03;;;19.10;99.90;;;;;;4879573;29;20064;-75
2022/06/17 04:20:15;;;;;;;10.55;6.07;;;19.20;99.90;;;;;;4879021;29;20528;-76
2022/06/17 04:23:09;;;;;;;11.23;6.00;;;19.20;99.90;;;;;;4879443;29;20155;-76
2022/06/17 04:26:17;;;;;;;10.77;5.65;;;19.30;99.90;;;;;;4866700;29;20181;-76
2022/06/17 04:29:11;;;;;;;15.07;5.95;;;19.30;99.90;;;;;;4878028;29;20449;-79
2022/06/17 04:32:21;;;;;;;13.20;6.68;;;19.30;99.90;;;;;;4879489;29;20118;-77
2022/06/17 04:35:12;;;;;;;15.38;5.70;;;19.20;99.90;;;;;;4879576;29;20124;-77
2022/06/17 04:37:57;;;;;;;30.67;20.58;;;19.30;99.90;;;;;;4879110;29;20056;-77
2022/06/17 04:40:49;;;;;;;18.90;10.05;;;19.60;99.90;;;;;;4879572;29;20139;-76
2022/06/17 04:43:40;;;;;;;14.32;6.97;;;19.50;99.90;;;;;;4879115;29;20454;-82
2022/06/17 04:46:37;;;;;;;85.10;57.72;;;19.50;99.90;;;;;;4879007;29;20517;-75
2022/06/17 04:49:26;;;;;;;66.38;43.53;;;19.60;99.90;;;;;;4878658;29;20158;-83
2022/06/17 04:52:24;;;;;;;96.72;59.60;;;19.70;99.90;;;;;;4878954;29;20129;-75
2022/06/17 04:55:21;;;;;;;58.70;36.47;;;19.70;99.90;;;;;;4878360;29;20060;-74
2022/06/17 04:58:12;;;;;;;15.63;11.43;;;19.90;99.90;;;;;;4877534;29;20532;-75
2022/06/17 05:00:58;;;;;;;;;;;19.60;99.90;;;;;;4878183;29;20405;-75
2022/06/17 05:03:44;;;;;;;27.15;10.80;;;19.40;99.90;;;;;;4878493;29;20015;-78
2022/06/17 05:06:30;;;;;;;19.50;10.68;;;19.10;99.90;;;;;;4878810;29;20052;-77
2022/06/17 05:09:30;;;;;;;60.30;34.75;;;19.40;99.90;;;;;;4871393;29;20048;-79
2022/06/17 05:12:16;;;;;;;46.00;25.90;;;19.30;99.90;;;;;;4859982;29;20056;-76
2022/06/17 05:15:18;;;;;;;23.13;14.60;;;19.50;99.90;;;;;;4859745;29;20615;-77
2022/06/17 05:18:05;;;;;;;23.45;11.15;;;19.70;99.90;;;;;;4857842;29;20101;-76
2022/06/17 05:20:51;;;;;;;21.58;11.98;;;19.50;99.90;;;;;;4859928;29;20061;-75
2022/06/17 05:23:38;;;;;;;19.05;10.38;;;19.60;99.90;;;;;;4858163;29;20044;-75
2022/06/17 05:26:25;;;;;;;21.15;12.73;;;19.80;99.90;;;;;;4858551;29;20061;-76
2022/06/17 05:29:11;;;;;;;25.48;11.65;;;19.90;99.90;;;;;;4857708;29;20132;-83
2022/06/17 05:31:57;;;;;;;23.20;12.65;;;20.10;99.90;;;;;;4858346;29;20056;-79
2022/06/17 05:34:43;;;;;;;22.63;12.32;;;20.20;99.90;;;;;;4857560;29;20186;-77
2022/06/17 05:37:29;;;;;;;22.20;11.73;;;20.30;99.90;;;;;;4858456;29;20133;-82
2022/06/17 05:40:18;;;;;;;24.90;12.15;;;20.40;99.90;;;;;;4857873;29;20137;-84
2022/06/17 05:43:05;;;;;;;19.73;11.50;;;20.40;99.90;;;;;;4859599;29;20060;-75
2022/06/17 05:45:51;;;;;;;21.65;11.23;;;20.40;99.90;;;;;;4858530;29;20513;-77
2022/06/17 05:48:37;;;;;;;19.27;10.65;;;20.50;99.90;;;;;;4858279;29;20053;-77
2022/06/17 05:51:23;;;;;;;19.73;10.07;;;20.40;99.90;;;;;;4859229;29;20529;-77
2022/06/17 05:54:09;;;;;;;20.17;10.77;;;20.50;99.90;;;;;;4859252;29;20060;-76
2022/06/17 05:56:55;;;;;;;117.78;74.80;;;20.50;99.90;;;;;;4859531;29;20430;-80
2022/06/17 05:59:45;;;;;;;102.05;60.22;;;20.40;99.90;;;;;;4858896;29;20052;-75
2022/06/17 06:02:31;;;;;;;193.32;121.10;;;20.50;99.90;;;;;;4859514;29;20057;-79
2022/06/17 06:05:20;;;;;;;33.60;22.13;;;20.50;99.90;;;;;;4859139;29;20074;-77
2022/06/17 06:08:06;;;;;;;28.85;11.60;;;20.70;99.90;;;;;;4860204;29;20122;-79
2022/06/17 06:10:52;;;;;;;21.27;11.15;;;20.90;99.90;;;;;;4877018;29;20060;-76
2022/06/17 06:13:38;;;;;;;24.05;11.60;;;20.90;99.90;;;;;;4877722;29;20088;-75
2022/06/17 06:16:24;;;;;;;27.67;13.85;;;21.00;99.90;;;;;;4877979;29;20635;-77
2022/06/17 06:19:10;;;;;;;23.35;11.25;;;21.10;99.90;;;;;;4877270;29;20110;-74
2022/06/17 06:21:56;;;;;;;23.17;10.57;;;21.00;99.90;;;;;;4877691;29;20047;-80
2022/06/17 06:24:42;;;;;;;23.95;9.55;;;21.20;99.90;;;;;;4877337;29;20056;-77
2022/06/17 06:27:28;;;;;;;17.00;9.77;;;21.30;99.50;;;;;;4877818;29;20056;-77
2022/06/17 06:30:29;;;;;;;19.63;10.30;;;21.50;99.80;;;;;;4876117;29;20052;-76
2022/06/17 06:33:15;;;;;;;17.88;9.63;;;21.50;99.70;;;;;;4876207;29;20197;-76
2022/06/17 06:36:01;;;;;;;19.02;9.05;;;21.60;99.00;;;;;;4877180;29;20435;-75
2022/06/17 06:38:48;;;;;;;21.13;8.73;;;21.70;98.90;;;;;;4877517;29;20121;-76
2022/06/17 06:41:34;;;;;;;17.15;8.50;;;21.80;98.90;;;;;;4877824;29;20068;-76
2022/06/17 06:44:20;;;;;;;24.77;14.23;;;21.80;98.70;;;;;;4876889;29;20117;-75
2022/06/17 06:47:06;;;;;;;31.77;20.45;;;21.80;98.50;;;;;;4877398;29;20517;-79
2022/06/17 06:49:52;;;;;;;193.30;122.28;;;21.90;98.80;;;;;;4877482;29;20052;-84
2022/06/17 06:52:38;;;;;;;37.53;23.98;;;22.00;99.40;;;;;;4878917;29;20176;-80
2022/06/17 06:55:28;;;;;;;18.40;10.05;;;22.10;99.10;;;;;;4881141;29;20060;-80
2022/06/17 06:58:17;;;;;;;12.25;8.32;;;22.10;99.00;;;;;;4880868;29;20052;-79
2022/06/17 07:01:03;;;;;;;14.55;8.55;;;22.10;99.50;;;;;;4880592;29;20059;-76
2022/06/17 07:03:48;;;;;;;22.98;9.50;;;22.10;99.90;;;;;;4880505;29;20170;-76
2022/06/17 07:06:35;;;;;;;27.23;10.63;;;22.00;99.80;;;;;;4879578;29;20059;-75
2022/06/17 07:09:22;;;;;;;32.92;10.48;;;22.00;99.90;;;;;;4880113;29;20162;-74
2022/06/17 07:12:08;;;;;;;20.08;8.57;;;22.00;99.90;;;;;;4880701;29;20144;-77
2022/06/17 07:14:54;;;;;;;14.90;7.55;;;21.90;99.90;;;;;;4880376;29;20136;-85
2022/06/17 07:17:46;;;;;;;21.17;8.85;;;21.90;99.90;;;;;;4881346;29;20056;-87
2022/06/17 07:20:42;;;;;;;21.98;8.93;;;21.70;99.90;;;;;;4881087;29;20524;-88
2022/06/17 07:23:46;;;;;;;19.08;8.52;;;21.90;99.90;;;;;;4880321;29;20132;-84
2022/06/17 07:26:32;;;;;;;17.42;9.50;;;21.90;99.90;;;;;;4880623;29;20573;-85
2022/06/17 07:29:18;;;;;;;18.63;9.27;;;22.00;99.90;;;;;;4880504;29;20059;-87
2022/06/17 07:32:04;;;;;;;16.00;7.95;;;22.20;99.90;;;;;;4880539;29;20052;-86
2022/06/17 07:34:50;;;;;;;17.25;7.90;;;22.50;99.90;;;;;;4880281;29;20137;-78
2022/06/17 07:40:47;;;;;;;12.55;7.00;;;22.60;99.90;;;;;;4880819;29;20068;-86
2022/06/17 07:43:33;;;;;;;11.32;7.38;;;22.50;99.90;;;;;;4879861;29;20051;-86
2022/06/17 07:46:19;;;;;;;11.18;6.40;;;22.50;99.90;;;;;;4879879;29;20129;-78
2022/06/17 07:49:05;;;;;;;15.15;6.38;;;22.50;99.90;;;;;;4879958;29;20190;-75
2022/06/17 07:51:51;;;;;;;11.45;6.82;;;22.60;99.90;;;;;;4880029;29;20060;-77
2022/06/17 07:54:37;;;;;;;12.73;6.80;;;22.70;99.90;;;;;;4879816;29;20161;-79
2022/06/17 07:57:23;;;;;;;15.93;7.20;;;22.70;99.90;;;;;;4880067;29;20072;-78
2022/06/17 08:00:23;;;;;;;14.60;7.53;;;22.70;99.90;;;;;;4879351;29;20146;-78
2022/06/17 08:03:11;;;;;;;17.50;6.70;;;22.80;99.70;;;;;;4879803;29;20064;-75
2022/06/17 08:05:59;;;;;;;15.40;6.65;;;22.80;99.10;;;;;;4879119;29;20052;-76
2022/06/17 08:08:46;;;;;;;12.05;6.72;;;22.80;98.90;;;;;;4877710;29;20176;-79
2022/06/17 08:11:32;;;;;;;13.10;6.93;;;22.90;98.70;;;;;;4861142;29;20114;-79
2022/06/17 08:14:18;;;;;;;11.95;6.45;;;23.00;98.50;;;;;;4871387;29;20124;-78
2022/06/17 08:17:04;;;;;;;13.88;7.25;;;23.00;98.00;;;;;;4860015;29;20101;-77
2022/06/17 08:19:55;;;;;;;23.70;6.18;;;23.10;98.70;;;;;;4860060;29;20505;-78
2022/06/17 08:22:42;;;;;;;12.10;6.82;;;23.00;97.90;;;;;;4860530;29;20100;-78
2022/06/17 08:25:29;;;;;;;10.43;6.63;;;23.10;97.60;;;;;;4859351;29;20109;-78
2022/06/17 08:28:16;;;;;;;9.55;6.25;;;23.40;97.90;;;;;;4860303;29;20135;-76
2022/06/17 08:31:02;;;;;;;16.63;6.88;;;23.60;97.20;;;;;;4859949;29;20578;-76
2022/06/17 08:33:48;;;;;;;10.73;6.15;;;23.60;97.40;;;;;;4860012;29;20052;-83
2022/06/17 08:36:34;;;;;;;15.90;7.55;;;23.60;97.70;;;;;;4860689;29;20758;-78
2022/06/17 08:39:20;;;;;;;13.80;5.95;;;23.80;98.60;;;;;;4877250;29;20390;-79
2022/06/17 08:42:28;;;;;;;14.52;7.97;;;24.00;98.30;;;;;;4878667;29;20053;-78
2022/06/17 08:45:24;;;;;;;9.85;6.22;;;23.90;98.20;;;;;;4877734;29;20056;-80
2022/06/17 08:48:33;;;;;;;9.43;6.10;;;24.00;97.50;;;;;;4877842;29;20513;-79
2022/06/17 08:51:45;;;;;;;15.88;6.75;;;24.00;98.50;;;;;;4877498;29;20056;-78
2022/06/17 08:55:00;;;;;;;10.25;6.35;;;24.00;97.10;;;;;;4878857;29;20063;-79
2022/06/17 08:58:05;;;;;;;9.70;5.47;;;23.90;96.70;;;;;;4877479;29;20101;-80
2022/06/17 09:01:44;;;;;;;10.45;6.65;;;24.10;97.10;;;;;;4877507;29;20867;-78
2022/06/17 09:04:40;;;;;;;11.98;7.10;;;24.00;96.50;;;;;;4867629;29;20536;-78
2022/06/17 09:07:41;;;;;;;10.88;5.82;;;24.10;97.50;;;;;;4860131;29;20109;-77
2022/06/17 09:11:00;;;;;;;12.43;6.25;;;24.20;96.80;;;;;;4869088;29;20052;-77
2022/06/17 09:14:01;;;;;;;8.65;5.75;;;24.40;96.20;;;;;;4876990;29;20187;-77
2022/06/17 09:16:50;;;;;;;;;;;24.50;96.80;;;;;;4878451;29;20079;-79
2022/06/17 09:19:43;;;;;;;11.75;6.00;;;24.60;95.50;;;;;;4878116;29;20296;-81
2022/06/17 09:22:34;;;;;;;12.07;6.30;;;24.40;95.50;;;;;;4878829;29;20083;-78
2022/06/17 09:25:25;;;;;;;15.02;6.13;;;24.40;96.50;;;;;;4877938;29;20132;-83
2022/06/17 09:28:32;;;;;;;10.38;5.53;;;24.70;97.50;;;;;;4877722;29;20189;-78
2022/06/17 09:31:26;;;;;;;8.55;5.90;;;24.70;96.00;;;;;;4877394;29;20141;-79
2022/06/17 09:34:12;;;;;;;12.77;6.40;;;25.00;95.60;;;;;;4878060;29;20052;-79
2022/06/17 09:37:00;;;;;;;11.77;5.68;;;25.10;96.10;;;;;;4878059;29;20112;-78
2022/06/17 09:40:15;;;;;;;9.13;5.80;;;25.10;96.30;;;;;;4876985;29;20429;-79
2022/06/17 09:43:21;;;;;;;9.98;5.97;;;25.10;95.60;;;;;;4877880;29;20056;-79
2022/06/17 09:46:16;;;;;;;11.27;5.93;;;25.00;95.10;;;;;;4877853;29;20089;-77
2022/06/17 09:49:33;;;;;;;13.07;6.90;;;25.20;96.10;;;;;;4877975;29;20052;-81
2022/06/17 09:52:42;;;;;;;13.13;6.25;;;25.20;96.10;;;;;;4878231;29;20064;-78
2022/06/17 09:55:31;;;;;;;10.55;5.90;;;25.40;95.30;;;;;;4877983;29;20185;-78
2022/06/17 09:58:23;;;;;;;11.00;5.80;;;25.70;95.60;;;;;;4877648;29;20515;-82
2022/06/17 10:01:10;;;;;;;10.07;6.13;;;25.70;95.90;;;;;;4877041;29;20510;-77
2022/06/17 10:03:57;;;;;;;14.23;6.47;;;25.90;95.10;;;;;;4877678;29;20068;-78
2022/06/17 10:06:49;;;;;;;12.52;7.47;;;26.00;94.70;;;;;;4878098;29;20055;-78
2022/06/17 10:10:02;;;;;;;11.07;6.95;;;26.10;94.70;;;;;;4877342;29;20618;-80
2022/06/17 10:13:02;;;;;;;14.43;6.78;;;26.10;96.70;;;;;;4877656;29;20450;-75
2022/06/17 10:20:12;;;;;;;10.45;5.88;;;26.10;95.40;;;;;;4878017;29;20519;-78
2022/06/17 10:23:04;;;;;;;13.57;6.55;;;26.00;95.40;;;;;;4877281;29;20093;-85
2022/06/17 10:26:11;;;;;;;15.57;6.35;;;26.10;95.40;;;;;;4877860;29;20060;-80
2022/06/17 10:29:27;;;;;;;11.40;6.13;;;26.40;95.10;;;;;;4880608;29;20067;-75
2022/06/17 10:32:13;;;;;;;9.98;6.47;;;26.40;93.90;;;;;;4881724;29;20601;-83
2022/06/17 10:35:03;;;;;;;9.50;6.57;;;26.30;94.40;;;;;;4865194;29;20425;-75
2022/06/17 10:37:49;;;;;;;11.25;6.35;;;26.50;94.60;;;;;;4869266;29;20574;-73
2022/06/17 10:40:41;;;;;;;10.05;5.95;;;26.80;95.10;;;;;;4867601;29;20065;-74
2022/06/17 10:43:49;;;;;;;10.25;5.63;;;26.60;94.80;;;;;;4868790;29;20071;-81
2022/06/17 10:46:39;;;;;;;12.85;5.75;;;26.70;95.20;;;;;;4876260;29;20071;-75
2022/06/17 10:49:59;;;;;;;9.68;6.13;;;27.10;94.90;;;;;;4868768;29;20052;-78
2022/06/17 10:52:51;;;;;;;;;;;27.00;92.60;;;;;;4850269;29;20068;-77
2022/06/17 10:55:43;;;;;;;9.73;6.15;;;27.10;92.90;;;;;;4876829;29;20052;-78
2022/06/17 10:58:36;;;;;;;11.60;6.75;;;26.90;92.00;;;;;;4879479;29;20581;-78
2022/06/17 11:01:22;;;;;;;9.18;5.78;;;27.10;91.50;;;;;;4880740;29;20056;-75
2022/06/17 11:04:30;;;;;;;9.52;5.65;;;27.10;91.10;;;;;;4880698;29;20064;-76
2022/06/17 11:07:22;;;;;;;9.65;6.85;;;27.50;90.00;;;;;;4872089;29;20193;-77
2022/06/17 11:10:14;;;;;;;12.25;6.80;;;27.70;88.40;;;;;;4870556;29;20179;-77
2022/06/17 11:13:04;;;;;;;8.63;5.60;;;27.90;88.40;;;;;;4880201;29;20190;-77
2022/06/17 11:15:56;;;;;;;9.50;5.68;;;28.20;88.40;;;;;;4880853;29;20117;-83
2022/06/17 11:18:45;;;;;;;11.50;5.93;;;28.30;88.40;;;;;;4880028;29;20421;-76
2022/06/17 11:21:51;;;;;;;10.75;6.28;;;28.20;87.40;;;;;;4870581;29;20048;-73
2022/06/17 11:24:40;;;;;;;11.68;5.88;;;28.40;88.00;;;;;;4861494;29;20060;-74
2022/06/17 11:27:43;;;;;;;10.45;5.60;;;28.60;86.80;;;;;;4860708;29;20144;-74
2022/06/17 11:30:37;;;;;;;7.63;4.73;;;28.40;82.70;;;;;;4861572;29;20117;-73
2022/06/17 11:33:29;;;;;;;10.75;4.97;;;28.60;82.80;;;;;;4861466;29;20201;-75
2022/06/17 11:36:19;;;;;;;8.43;4.82;;;28.60;82.00;;;;;;4863592;29;20056;-73
2022/06/17 11:39:34;;;;;;;8.48;4.88;;;28.60;80.90;;;;;;4861226;29;20055;-74
2022/06/17 11:42:24;;;;;;;10.35;5.38;;;28.40;80.00;;;;;;4861114;29;20673;-73
2022/06/17 11:45:22;;;;;;;10.35;5.15;;;28.60;80.40;;;;;;4861258;29;20072;-73
2022/06/17 11:48:14;;;;;;;11.40;5.35;;;28.90;80.00;;;;;;4862651;29;20509;-73
2022/06/17 11:51:07;;;;;;;13.65;5.43;;;29.00;80.80;;;;;;4871161;29;20191;-70
2022/06/17 11:53:57;;;;;;;6.93;4.57;;;29.30;77.40;;;;;;4870282;29;20047;-71
2022/06/17 11:56:46;;;;;;;9.10;4.93;;;29.20;76.30;;;;;;4871265;29;20136;-72
2022/06/17 11:59:41;;;;;;;10.53;4.23;;;29.20;77.00;;;;;;4868837;29;20147;-71
2022/06/17 12:02:27;;;;;;;7.47;4.15;;;29.20;74.30;;;;;;4869116;29;20406;-74
2022/06/17 12:05:24;;;;;;;7.72;4.20;;;29.10;72.30;;;;;;4870383;29;20055;-76
2022/06/17 12:08:14;;;;;;;9.45;4.85;;;29.30;71.50;;;;;;4896168;29;20176;-89
2022/06/17 12:11:10;;;;;;;;;;;29.30;71.60;;;;;;4869548;29;20055;-77
2022/06/17 12:14:00;;;;;;;7.22;3.85;;;29.30;72.80;;;;;;4878974;29;19931;-77
2022/06/17 12:16:47;;;;;;;8.63;4.60;;;29.60;70.40;;;;;;4873872;29;20539;-78
2022/06/17 12:19:54;;;;;;;7.70;4.43;;;29.70;69.30;;;;;;4873472;29;20187;-78
2022/06/17 12:22:48;;;;;;;8.55;4.63;;;29.60;67.60;;;;;;4867407;29;20052;-78
2022/06/17 12:25:50;;;;;;;7.95;4.45;;;29.40;70.60;;;;;;4860491;29;20160;-77
2022/06/17 12:29:09;;;;;;;10.55;5.20;;;29.50;69.90;;;;;;4860073;29;20422;-77
2022/06/17 12:32:28;;;;;;;9.27;5.10;;;29.30;70.90;;;;;;4868856;29;20128;-76
2022/06/17 12:35:22;;;;;;;9.20;4.28;;;29.50;68.20;;;;;;4874574;29;20093;-76
2022/06/17 12:38:32;;;;;;;7.05;4.30;;;29.30;66.90;;;;;;4878278;29;20508;-79
2022/06/17 12:41:27;;;;;;;;;;;29.40;68.90;;;;;;4879252;29;20079;-80
2022/06/17 12:44:14;;;;;;;7.85;3.92;;;29.40;66.20;;;;;;4878896;29;19929;-78
2022/06/17 12:47:04;;;;;;;9.80;4.20;;;29.20;67.80;;;;;;4878922;29;20152;-78
2022/06/17 12:53:21;;;;;;;10.00;4.07;;;29.10;67.10;;;;;;4879303;29;20143;-78
2022/06/17 12:56:26;;;;;;;8.45;4.80;;;29.20;68.70;;;;;;4874462;29;20068;-77
2022/06/17 12:59:20;;;;;;;10.10;5.03;;;29.80;68.70;;;;;;4858816;29;20060;-78
2022/06/17 13:02:21;;;;;;;11.27;5.65;;;30.30;67.50;;;;;;4866197;29;20052;-79
2022/06/17 13:05:25;;;;;;;17.38;9.20;;;30.80;67.90;;;;;;4864262;29;20325;-77
2022/06/17 13:08:33;;;;;;;15.98;7.90;;;30.90;65.10;;;;;;4859877;29;20053;-76
2022/06/17 13:11:52;;;;;;;22.83;13.23;;;31.10;64.90;;;;;;4868539;29;20052;-77
2022/06/17 13:14:53;;;;;;;8.57;4.68;;;31.30;66.70;;;;;;4878533;29;20064;-78
2022/06/17 13:18:02;;;;;;;8.38;4.00;;;31.20;62.50;;;;;;4878122;29;20063;-79
2022/06/17 13:20:59;;;;;;;13.23;7.72;;;31.00;64.40;;;;;;4870018;29;20056;-75
2022/06/17 13:24:13;;;;;;;7.07;4.28;;;30.60;59.40;;;;;;4861559;29;20140;-77
2022/06/17 13:27:07;;;;;;;5.85;2.45;;;30.90;54.60;;;;;;4869181;29;20417;-76
2022/06/17 13:30:11;;;;;;;10.88;5.57;;;30.70;53.90;;;;;;4866193;29;20060;-74
2022/06/17 13:33:03;;;;;;;7.90;3.20;;;30.60;56.80;;;;;;4865351;29;20057;-75
2022/06/17 13:36:13;;;;;;;7.00;3.00;;;31.00;55.20;;;;;;4870275;29;20063;-83
2022/06/17 13:39:25;;;;;;;9.45;3.92;;;31.00;55.40;;;;;;4859292;29;20403;-84
2022/06/17 13:42:15;;;;;;;9.73;3.97;;;31.00;58.30;;;;;;4859711;29;20060;-80
2022/06/17 13:45:25;;;;;;;10.15;3.78;;;30.60;61.20;;;;;;4859338;29;20048;-79
2022/06/17 13:48:11;;;;;;;;;;;30.20;61.80;;;;;;4860017;29;20132;-78
2022/06/17 13:51:32;;;;;;;9.68;4.40;;;30.40;63.20;;;;;;4858365;29;20400;-79
2022/06/17 13:54:48;;;;;;;7.70;4.35;;;30.20;61.90;;;;;;4863758;29;20606;-78
2022/06/17 13:57:40;;;;;;;12.48;6.93;;;30.30;62.50;;;;;;4860530;29;20060;-78
2022/06/17 14:00:33;;;;;;;25.98;15.15;;;30.70;61.20;;;;;;4871791;29;20077;-77
2022/06/17 14:03:42;;;;;;;20.63;17.02;;;30.90;61.40;;;;;;4876244;29;20072;-76
2022/06/17 14:06:49;;;;;;;11.77;8.50;;;30.90;61.30;;;;;;4868619;29;20141;-77
2022/06/17 14:09:39;;;;;;;16.77;13.27;;;30.90;62.20;;;;;;4868220;29;20047;-77
2022/06/17 14:12:54;;;;;;;32.03;24.85;;;30.80;61.30;;;;;;4870621;29;20586;-77
2022/06/17 14:15:54;;;;;;;27.33;19.52;;;30.70;61.10;;;;;;4865330;29;20056;-77
2022/06/17 14:19:00;;;;;;;17.45;4.90;;;29.90;61.40;;;;;;4871511;29;20149;-77
2022/06/17 14:21:52;;;;;;;7.63;4.25;;;29.40;62.10;;;;;;4871948;29;20056;-75
2022/06/17 14:24:44;;;;;;;7.05;4.25;;;29.10;63.40;;;;;;4870904;29;20052;-77
2022/06/17 14:27:30;;;;;;;9.50;4.22;;;28.90;64.80;;;;;;4857527;29;20088;-77
2022/06/17 14:30:16;;;;;;;6.80;3.72;;;28.80;66.30;;;;;;4858100;29;20073;-78
2022/06/17 14:33:02;;;;;;;9.75;4.00;;;28.40;68.10;;;;;;4859277;29;20060;-76
2022/06/17 14:35:51;;;;;;;10.43;4.95;;;28.30;69.20;;;;;;4858902;29;20117;-77
2022/06/17 14:38:54;;;;;;;18.35;5.43;;;28.30;69.10;;;;;;4859152;29;20053;-78
2022/06/17 14:45:06;;;;;;;16.73;5.25;;;27.70;68.80;;;;;;4859080;29;20531;-77
2022/06/17 14:48:17;;;;;;;12.75;5.30;;;27.70;70.00;;;;;;4865526;29;20533;-79
2022/06/17 14:51:39;;;;;;;9.35;5.38;;;27.50;70.80;;;;;;4877894;29;20053;-79
2022/06/17 14:54:30;;;;;;;12.73;6.05;;;27.40;71.60;;;;;;4865221;29;20598;-78
2022/06/17 14:57:19;;;;;;;12.13;5.70;;;27.00;74.60;;;;;;4868950;29;20418;-78
2022/06/17 15:00:16;;;;;;;11.10;5.28;;;26.80;74.40;;;;;;4871803;29;20100;-79
2022/06/17 15:03:13;;;;;;;7.93;4.82;;;26.60;73.20;;;;;;4865948;29;20140;-76
2022/06/17 15:06:00;;;;;;;7.90;4.45;;;26.40;72.70;;;;;;4865827;29;20047;-79
2022/06/17 15:08:49;;;;;;;7.68;4.10;;;26.30;73.30;;;;;;4866109;29;20059;-80
2022/06/17 15:11:36;;;;;;;7.75;4.45;;;26.10;72.50;;;;;;4884330;29;20075;-80